Time;durP1;ratioP1;P1;durP2;ratioP2;P2;SDS_P1;SDS_P2;PMS_P1;PMS_P2;Temp;Humidity;BMP_temperature;BMP_pressure;BME280_temperature;BME280_humidity;BME280_pressure;Samples;Min_cycle;Max_cycle;Signal;HPM_P1;HPM_P2
2022/03/19 00:01:00;;;;;;;6.72;5.30;;;;;;;3.40;43.11;104115.63;1741076;80;21114;-79
2022/03/19 00:03:28;;;;;;;7.05;5.28;;;;;;;3.38;43.25;104108.20;1724903;81;21030;-77
2022/03/19 00:05:55;;;;;;;6.42;5.03;;;;;;;3.37;43.57;104108.12;1736454;80;21213;-74
2022/03/19 00:08:23;;;;;;;6.40;5.45;;;;;;;3.36;43.63;104111.08;1773054;80;21038;-77
2022/03/19 00:10:52;;;;;;;6.47;5.15;;;;;;;3.36;43.80;104112.38;1753203;80;21019;-74
2022/03/19 00:13:21;;;;;;;5.87;4.90;;;;;;;3.38;43.53;104108.63;1749027;80;21649;-74
2022/03/19 00:15:48;;;;;;;5.42;4.87;;;;;;;3.41;43.42;104108.41;1748624;81;21033;-78
2022/03/19 00:18:17;;;;;;;5.60;4.83;;;;;;;3.42;43.31;104111.88;1766600;80;21073;-76
2022/03/19 00:20:44;;;;;;;6.80;5.00;;;;;;;3.41;43.47;104107.50;1753052;80;21022;-75
2022/03/19 00:23:11;;;;;;;5.37;4.55;;;;;;;3.41;43.35;104111.37;1763588;79;21203;-75
2022/03/19 00:25:39;;;;;;;6.35;4.30;;;;;;;3.39;43.13;104109.10;1769913;78;21063;-79
2022/03/19 00:28:07;;;;;;;7.35;4.83;;;;;;;3.41;43.29;104100.68;1783825;77;21081;-75
2022/03/19 00:30:36;;;;;;;5.45;4.08;;;;;;;3.41;43.25;104107.50;1778574;79;21066;-74
2022/03/19 00:33:03;;;;;;;6.42;4.70;;;;;;;3.40;43.53;104107.03;1753303;80;21093;-79
2022/03/19 00:35:32;;;;;;;7.03;5.17;;;;;;;3.41;43.53;104104.94;1782651;79;21064;-77
2022/03/19 00:38:01;;;;;;;5.87;4.05;;;;;;;3.39;43.51;104096.23;1787725;79;21013;-77
2022/03/19 00:40:29;;;;;;;5.33;4.33;;;;;;;3.40;43.46;104105.75;1778293;79;21561;-77
2022/03/19 00:42:56;;;;;;;5.92;4.62;;;;;;;3.42;43.36;104104.16;1771080;80;21018;-77
2022/03/19 00:45:23;;;;;;;5.83;4.40;;;;;;;3.40;43.24;104101.88;1755751;80;21006;-77
2022/03/19 00:47:51;;;;;;;5.40;4.42;;;;;;;3.40;43.24;104109.61;1769035;80;21046;-78
2022/03/19 00:50:18;;;;;;;5.70;4.20;;;;;;;3.38;43.22;104107.34;1787166;79;21038;-76
2022/03/19 00:52:45;;;;;;;5.22;4.20;;;;;;;3.36;43.07;104105.07;1774060;79;21565;-78
2022/03/19 00:55:13;;;;;;;5.87;4.50;;;;;;;3.36;43.33;104102.50;1774455;78;21053;-77
2022/03/19 00:57:41;;;;;;;6.35;4.20;;;;;;;3.35;43.39;104102.89;1765168;79;21481;-77
2022/03/19 01:00:11;;;;;;;5.62;4.40;;;;;;;3.37;43.42;104098.72;1789627;79;21490;-77
2022/03/19 01:02:42;;;;;;;6.28;4.65;;;;;;;3.38;43.25;104099.62;1780119;79;21023;-78
2022/03/19 01:05:10;;;;;;;6.67;4.58;;;;;;;3.38;43.33;104101.77;1678961;84;21569;-76
2022/03/19 01:10:23;;;;;;;8.83;4.47;;;;;;;3.37;43.39;104093.57;1585880;88;21076;-75
2022/03/19 01:12:53;;;;;;;6.97;3.92;;;;;;;3.36;43.34;104092.20;1590910;88;21504;-74
2022/03/19 01:15:22;;;;;;;5.05;4.25;;;;;;;3.35;43.19;104087.83;1583812;88;21594;-75
2022/03/19 01:17:51;;;;;;;7.85;4.72;;;;;;;3.35;43.03;104095.16;1594511;88;21107;-77
2022/03/19 01:20:21;;;;;;;5.12;4.22;;;;;;;3.34;42.75;104087.36;1590925;89;21556;-75
2022/03/19 01:22:49;;;;;;;6.20;4.55;;;;;;;3.32;43.16;104083.38;1590634;89;21080;-76
2022/03/19 01:25:17;;;;;;;6.30;4.40;;;;;;;3.34;42.96;104088.64;1594254;87;21046;-75
2022/03/19 01:27:46;;;;;;;4.60;4.10;;;;;;;3.36;42.61;104085.77;1594576;88;21100;-75
2022/03/19 01:30:17;;;;;;;4.03;3.40;;;;;;;3.36;42.85;104081.48;1593326;87;21080;-77
2022/03/19 01:32:45;;;;;;;4.08;3.67;;;;;;;3.37;42.36;104082.38;1590803;89;21079;-75
2022/03/19 01:35:16;;;;;;;4.62;3.75;;;;;;;3.37;42.71;104079.80;1596454;88;21108;-75
2022/03/19 01:37:43;;;;;;;4.35;3.77;;;;;;;3.37;41.84;104069.51;1595323;88;21092;-78
2022/03/19 01:40:13;;;;;;;4.47;3.47;;;;;;;3.37;41.53;104081.09;1597750;87;21073;-75
2022/03/19 01:42:45;;;;;;;4.22;2.80;;;;;;;3.36;40.84;104078.05;1591315;89;21053;-74
2022/03/19 01:45:23;;;;;;;3.72;2.37;;;;;;;3.35;40.25;104078.44;1588103;90;21017;-77
2022/03/19 01:47:50;;;;;;;2.67;2.47;;;;;;;3.38;39.81;104084.17;1523711;91;21067;-79
2022/03/19 01:50:19;;;;;;;4.35;2.42;;;;;;;3.40;39.61;104086.44;1521178;92;21210;-79
2022/03/19 01:52:48;;;;;;;3.72;2.33;;;;;;;3.45;39.39;104087.59;1523557;93;21067;-75
2022/03/19 01:55:20;;;;;;;2.30;2.08;;;;;;;3.50;38.85;104088.38;1520874;92;21143;-75
2022/03/19 01:57:49;;;;;;;2.65;2.15;;;;;;;3.55;38.70;104093.77;1515385;93;21264;-78
2022/03/19 02:00:19;;;;;;;2.12;1.72;;;;;;;3.58;38.37;104086.25;1534313;91;21561;-79
2022/03/19 02:02:49;;;;;;;2.62;2.35;;;;;;;3.62;38.29;104093.36;1588837;88;21040;-79
2022/03/19 02:05:21;;;;;;;2.65;2.30;;;;;;;3.65;38.45;104087.98;1619064;88;21051;-75
2022/03/19 02:07:49;;;;;;;2.30;2.10;;;;;;;3.69;38.57;104090.36;1627007;86;21056;-77
2022/03/19 02:10:17;;;;;;;3.52;2.33;;;;;;;3.71;38.76;104097.34;1635324;86;21102;-75
2022/03/19 02:12:46;;;;;;;2.75;2.25;;;;;;;3.71;38.71;104087.05;1647722;86;21530;-76
2022/03/19 02:15:14;;;;;;;3.30;2.10;;;;;;;3.72;39.14;104096.56;1638743;86;21592;-76
2022/03/19 02:17:41;;;;;;;3.85;2.92;;;;;;;3.72;39.04;104093.09;1629526;87;21579;-76
2022/03/19 02:20:11;;;;;;;2.75;2.02;;;;;;;3.69;38.53;104095.51;1645016;85;21086;-77
2022/03/19 02:22:39;;;;;;;3.55;2.08;;;;;;;3.68;38.77;104100.16;1611339;87;21081;-77
2022/03/19 02:27:55;;;;;;;3.22;2.12;;;;;;;3.67;38.42;104100.97;1634619;87;21109;-76
2022/03/19 02:30:23;;;;;;;2.10;1.90;;;;;;;3.67;38.39;104100.97;1631062;87;21179;-77
2022/03/19 02:32:50;;;;;;;3.02;2.47;;;;;;;3.70;38.36;104109.75;1637634;86;21090;-80
2022/03/19 02:35:18;;;;;;;3.25;2.70;;;;;;;3.71;38.08;104108.08;1641099;86;21058;-78
2022/03/19 02:37:48;;;;;;;2.65;2.27;;;;;;;3.72;38.06;104105.97;1646456;86;21062;-74
2022/03/19 02:40:19;;;;;;;4.33;2.58;;;;;;;3.75;37.77;104109.61;1638969;86;21050;-80
2022/03/19 02:42:51;;;;;;;3.60;2.10;;;;;;;3.73;37.90;104110.34;1638694;86;21077;-74
2022/03/19 02:45:23;;;;;;;4.58;2.92;;;;;;;3.68;37.83;104107.87;1723785;80;21082;-77
2022/03/19 02:47:57;;;;;;;3.00;2.70;;;;;;;3.65;38.21;104103.81;1719006;82;21051;-75
2022/03/19 02:50:31;;;;;;;3.33;2.50;;;;;;;3.62;38.26;104103.66;1735405;82;21045;-75
2022/03/19 02:53:00;;;;;;;2.75;2.30;;;;;;;3.61;38.37;104112.16;1664703;85;21070;-77
2022/03/19 02:55:40;;;;;;;2.85;2.35;;;;;;;3.59;37.77;104111.18;1707179;82;21042;-75
2022/03/19 02:58:08;;;;;;;3.98;2.60;;;;;;;3.54;37.45;104110.03;1649731;86;21053;-77
2022/03/19 03:00:36;;;;;;;2.40;2.20;;;;;;;3.51;37.41;104120.12;1669975;85;21654;-74
2022/03/19 03:03:04;;;;;;;2.75;2.40;;;;;;;3.49;37.59;104116.58;1651139;85;21048;-78
2022/03/19 03:05:33;;;;;;;5.05;2.40;;;;;;;3.49;37.90;104117.86;1644516;85;21542;-75
2022/03/19 03:08:01;;;;;;;4.47;2.42;;;;;;;3.51;37.91;104122.70;1654013;85;21049;-77
2022/03/19 03:10:28;;;;;;;4.70;2.60;;;;;;;3.51;37.96;104117.56;1644957;85;21128;-78
2022/03/19 03:12:57;;;;;;;2.65;2.17;;;;;;;3.53;38.17;104124.98;1647730;86;21576;-75
2022/03/19 03:15:25;;;;;;;2.65;2.15;;;;;;;3.55;38.43;104117.84;1670285;85;21698;-75
2022/03/19 03:17:52;;;;;;;3.33;2.25;;;;;;;3.58;38.63;104119.72;1669349;85;21171;-77
2022/03/19 03:20:21;;;;;;;2.15;1.85;;;;;;;3.62;39.01;104121.68;1654263;85;21588;-74
2022/03/19 03:22:49;;;;;;;4.37;2.60;;;;;;;3.65;38.82;104121.84;1668575;85;21036;-77
2022/03/19 03:25:17;;;;;;;3.37;2.35;;;;;;;3.65;38.61;104116.69;1672168;85;21138;-80
2022/03/19 03:27:46;;;;;;;2.67;2.27;;;;;;;3.65;38.42;104124.03;1659370;85;21056;-74
2022/03/19 03:30:13;;;;;;;2.87;2.22;;;;;;;3.65;38.42;104121.84;1671429;85;21053;-77
2022/03/19 03:32:41;;;;;;;5.03;2.50;;;;;;;3.64;38.83;104123.95;1671480;85;21076;-74
2022/03/19 03:35:08;;;;;;;3.45;2.20;;;;;;;3.62;38.97;104120.39;1676176;85;21117;-77
2022/03/19 03:37:37;;;;;;;3.08;2.27;;;;;;;3.61;39.34;104125.03;1681185;84;21036;-77
2022/03/19 03:40:07;;;;;;;3.22;2.30;;;;;;;3.61;39.28;104127.61;1673308;85;21083;-82
2022/03/19 03:42:41;;;;;;;2.47;2.20;;;;;;;3.57;39.58;104131.70;1676724;85;21032;-78
2022/03/19 03:45:11;;;;;;;2.67;2.37;;;;;;;3.52;39.29;104129.66;1675966;85;21207;-73
2022/03/19 03:47:39;;;;;;;4.55;2.30;;;;;;;3.46;39.53;104124.13;1676263;83;21512;-77
2022/03/19 03:50:08;;;;;;;3.15;2.40;;;;;;;3.43;39.50;104127.80;1712096;82;21660;-77
2022/03/19 03:52:37;;;;;;;2.72;2.33;;;;;;;3.41;40.21;104129.39;1738581;80;21546;-78
2022/03/19 03:55:07;;;;;;;3.35;2.45;;;;;;;3.39;40.17;104134.45;1789651;79;21558;-78
2022/03/19 03:57:35;;;;;;;3.10;2.50;;;;;;;3.39;40.17;104138.31;1792702;79;21046;-75
2022/03/19 04:00:05;;;;;;;2.30;2.10;;;;;;;3.39;39.80;104135.73;1786529;79;21160;-78
2022/03/19 04:02:36;;;;;;;3.90;2.40;;;;;;;3.40;39.91;104144.36;1780824;79;21591;-78
2022/03/19 04:05:07;;;;;;;3.77;1.82;;;;;;;3.44;39.93;104151.47;1785240;78;21023;-76
2022/03/19 04:07:35;;;;;;;2.12;1.82;;;;;;;3.44;39.36;104148.89;1779046;79;21505;-76
2022/03/19 04:10:03;;;;;;;3.62;2.35;;;;;;;3.41;39.34;104146.12;1779367;79;21560;-78
2022/03/19 04:12:31;;;;;;;4.78;2.37;;;;;;;3.42;39.66;104151.35;1784651;78;21109;-78
2022/03/19 04:14:59;;;;;;;3.85;2.25;;;;;;;3.40;39.72;104152.08;1786261;79;21006;-77
2022/03/19 04:17:26;;;;;;;2.92;2.35;;;;;;;3.39;39.78;104155.05;1787249;79;21537;-78
2022/03/19 04:19:53;;;;;;;2.67;2.15;;;;;;;3.39;39.55;104155.44;1781653;79;21029;-77
2022/03/19 04:22:22;;;;;;;3.42;2.47;;;;;;;3.38;39.65;104153.67;1770187;80;21612;-75
2022/03/19 04:24:49;;;;;;;2.52;2.30;;;;;;;3.35;39.80;104160.80;1768683;79;21011;-77
2022/03/19 04:27:17;;;;;;;1.90;1.80;;;;;;;3.34;39.85;104164.58;1776315;80;21577;-77
2022/03/19 04:29:45;;;;;;;2.40;1.92;;;;;;;3.35;39.56;104168.52;1754657;80;21566;-74
2022/03/19 04:32:12;;;;;;;2.70;2.10;;;;;;;3.37;39.54;104164.75;1783337;79;21019;-76
2022/03/19 04:34:40;;;;;;;2.52;2.17;;;;;;;3.37;39.50;104159.59;1790171;79;21026;-77
2022/03/19 04:37:08;;;;;;;2.52;2.17;;;;;;;3.39;39.62;104170.88;1778660;79;20998;-77
2022/03/19 04:39:35;;;;;;;4.10;2.40;;;;;;;3.43;39.83;104167.30;1783394;79;21038;-74
2022/03/19 04:42:04;;;;;;;3.35;2.60;;;;;;;3.46;39.18;104166.61;1769143;79;21082;-76
2022/03/19 04:44:32;;;;;;;3.52;2.45;;;;;;;3.46;39.15;104167.90;1766926;80;21019;-80
2022/03/19 04:46:59;;;;;;;4.08;2.65;;;;;;;3.47;38.96;104169.66;1772285;78;20982;-77
2022/03/19 04:49:28;;;;;;;2.62;2.15;;;;;;;3.48;39.30;104174.03;1780629;79;21154;-75
2022/03/19 04:51:56;;;;;;;3.77;2.87;;;;;;;3.49;39.92;104174.12;1794504;79;21078;-80
2022/03/19 04:54:23;;;;;;;4.42;3.20;;;;;;;3.49;40.67;104175.80;1778136;79;21478;-76
2022/03/19 04:56:50;;;;;;;5.28;3.83;;;;;;;3.44;40.66;104169.10;1775887;79;21533;-75
2022/03/19 04:59:17;;;;;;;3.62;2.85;;;;;;;3.42;41.15;104173.66;1793361;79;21025;-76
2022/03/19 05:01:45;;;;;;;6.53;3.40;;;;;;;3.38;40.93;104167.83;1757137;80;21027;-76
2022/03/19 05:04:13;;;;;;;4.12;3.70;;;;;;;3.33;41.27;104165.36;1781787;79;21066;-77
2022/03/19 05:06:41;;;;;;;5.55;4.50;;;;;;;3.28;41.50;104174.97;1756484;80;21570;-75
2022/03/19 05:11:54;;;;;;;5.67;4.40;;;;;;;3.30;42.60;104179.81;1743584;81;21020;-74
2022/03/19 05:14:22;;;;;;;6.58;4.28;;;;;;;3.32;42.68;104177.33;1720976;82;21555;-79
2022/03/19 05:16:51;;;;;;;4.12;3.15;;;;;;;3.30;42.73;104181.10;1733486;82;21070;-76
2022/03/19 05:19:19;;;;;;;3.30;2.67;;;;;;;3.30;42.57;104178.53;1702624;83;21034;-76
2022/03/19 05:21:48;;;;;;;3.75;2.40;;;;;;;3.31;42.04;104185.86;1686998;83;21032;-77
2022/03/19 05:24:17;;;;;;;5.30;2.55;;;;;;;3.33;41.53;104192.37;1703876;82;21083;-75
2022/03/19 05:26:46;;;;;;;2.70;2.42;;;;;;;3.35;41.12;104195.55;1770943;79;21027;-75
2022/03/19 05:29:14;;;;;;;4.05;2.47;;;;;;;3.35;40.44;104189.50;1771815;80;21054;-75
2022/03/19 05:31:41;;;;;;;2.70;2.05;;;;;;;3.38;40.41;104191.00;1775352;80;21023;-79
2022/03/19 05:36:59;;;;;;;4.45;3.10;;;;;;;3.42;39.83;104183.53;1774536;80;20992;-77
2022/03/19 05:39:28;;;;;;;5.28;4.15;;;;;;;3.43;40.66;104190.86;1707460;83;21490;-78
2022/03/19 05:41:56;;;;;;;5.30;4.30;;;;;;;3.42;42.20;104196.83;1786691;78;21609;-80
2022/03/19 05:44:25;;;;;;;4.97;4.35;;;;;;;3.40;42.39;104188.12;1770164;79;21715;-77
2022/03/19 05:46:52;;;;;;;5.62;4.35;;;;;;;3.36;42.85;104192.16;1769715;79;21503;-76
2022/03/19 05:49:19;;;;;;;5.67;4.50;;;;;;;3.34;42.81;104194.17;1764610;79;21010;-79
2022/03/19 05:51:48;;;;;;;5.20;4.47;;;;;;;3.29;42.83;104192.20;1778595;79;21474;-78
2022/03/19 05:54:16;;;;;;;5.65;4.55;;;;;;;3.25;42.48;104183.80;1781363;79;20978;-76
2022/03/19 05:56:43;;;;;;;4.78;3.75;;;;;;;3.24;42.50;104196.55;1771321;79;21117;-78
2022/03/19 05:59:10;;;;;;;5.25;3.17;;;;;;;3.21;42.30;104197.24;1778935;79;21084;-79
2022/03/19 06:01:38;;;;;;;4.47;3.10;;;;;;;3.20;41.75;104203.20;1770037;79;21038;-79
2022/03/19 06:04:05;;;;;;;4.62;3.20;;;;;;;3.19;41.85;104201.41;1779828;79;21026;-75
2022/03/19 06:06:34;;;;;;;4.15;2.80;;;;;;;3.18;41.88;104199.64;1781602;79;21082;-77
2022/03/19 06:09:03;;;;;;;3.22;2.77;;;;;;;3.16;41.42;104197.37;1780697;78;21593;-76
2022/03/19 06:11:42;;;;;;;;;;;;;;;;;;;;;
2022/03/19 06:14:03;;;;;;;4.90;3.27;;;;;;;3.16;40.97;104197.37;1705539;83;21084;-77
2022/03/19 06:16:32;;;;;;;3.77;3.27;;;;;;;3.16;40.91;104201.23;1692315;83;21018;-78
2022/03/19 06:19:01;;;;;;;3.67;3.00;;;;;;;3.16;40.76;104204.19;1692825;84;21046;-78
2022/03/19 06:21:28;;;;;;;3.52;2.80;;;;;;;3.14;40.33;104200.24;1698824;82;21044;-78
2022/03/19 06:23:55;;;;;;;4.17;3.20;;;;;;;3.15;40.48;104209.73;1699222;82;21116;-78
2022/03/19 06:26:23;;;;;;;3.92;2.80;;;;;;;3.15;40.20;104204.58;1708923;83;21059;-76
2022/03/19 06:28:51;;;;;;;3.37;2.87;;;;;;;3.15;40.69;104203.30;1707331;83;21011;-74
2022/03/19 06:31:18;;;;;;;5.37;4.28;;;;;;;3.16;41.21;104214.09;1697450;83;21069;-76
2022/03/19 06:33:45;;;;;;;4.83;3.42;;;;;;;3.18;41.46;104219.33;1706455;82;21513;-79
2022/03/19 06:38:58;;;;;;;4.05;3.42;;;;;;;3.19;40.56;104221.99;1708573;83;21074;-77
2022/03/19 06:41:26;;;;;;;3.75;3.00;;;;;;;3.21;40.79;104224.27;1706356;83;21008;-75
2022/03/19 06:43:53;;;;;;;3.22;2.67;;;;;;;3.28;40.84;104224.26;1708489;82;21001;-77
2022/03/19 06:46:21;;;;;;;3.70;3.12;;;;;;;3.31;40.39;104229.62;1780846;79;21104;-75
2022/03/19 06:48:49;;;;;;;3.75;3.27;;;;;;;3.33;40.72;104223.27;1787980;79;21114;-76
2022/03/19 06:51:18;;;;;;;4.97;3.10;;;;;;;3.34;40.68;104227.64;1793227;79;21042;-76
2022/03/19 06:53:45;;;;;;;4.67;3.17;;;;;;;3.37;40.35;104225.23;1778856;79;20986;-78
2022/03/19 06:56:13;;;;;;;4.10;3.20;;;;;;;3.38;40.41;104224.03;1785877;79;21121;-76
2022/03/19 07:01:14;;;;;;;5.05;3.83;;;;;;;3.39;40.91;104223.26;1689492;83;21184;-79
2022/03/19 07:03:39;;;;;;;5.28;3.72;;;;;;;3.41;41.41;104231.06;1684790;84;21066;-76
2022/03/19 07:06:06;;;;;;;3.70;3.22;;;;;;;3.46;41.03;104229.69;1694525;83;21055;-74
2022/03/19 07:08:33;;;;;;;5.47;3.60;;;;;;;3.46;40.85;104225.44;1699736;82;21034;-73
2022/03/19 07:11:01;;;;;;;4.55;3.40;;;;;;;3.45;40.83;104229.17;1680531;83;21601;-73
2022/03/19 07:13:29;;;;;;;3.75;3.25;;;;;;;3.44;40.66;104234.75;1691928;83;21129;-76
2022/03/19 07:15:58;;;;;;;4.33;3.50;;;;;;;3.46;40.60;104233.16;1701291;83;21585;-77
2022/03/19 07:18:27;;;;;;;5.58;3.60;;;;;;;3.50;40.99;104227.80;1692985;83;21037;-75
2022/03/19 07:20:54;;;;;;;6.65;4.22;;;;;;;3.55;40.65;104231.13;1694627;83;21042;-75
2022/03/19 07:23:22;;;;;;;5.97;3.72;;;;;;;3.59;40.17;104223.19;1693392;83;21038;-75
2022/03/19 07:25:49;;;;;;;4.90;4.15;;;;;;;3.59;40.44;104218.04;1685401;83;21604;-78
2022/03/19 07:28:18;;;;;;;6.03;4.10;;;;;;;3.56;41.15;104222.63;1683062;83;21554;-74
2022/03/19 07:30:47;;;;;;;5.62;4.40;;;;;;;3.56;41.36;104224.31;1696048;83;22489;-74
2022/03/19 07:33:14;;;;;;;6.20;4.00;;;;;;;3.57;41.27;104218.34;1686716;83;21128;-75
2022/03/19 07:35:42;;;;;;;6.28;4.75;;;;;;;3.55;41.15;104231.13;1699388;83;21038;-75
2022/03/19 07:38:11;;;;;;;6.92;5.45;;;;;;;3.58;41.17;104221.04;1686260;83;21018;-79
2022/03/19 07:43:25;;;;;;;7.70;5.30;;;;;;;3.59;42.19;104215.47;1704515;83;21090;-71
2022/03/19 07:45:54;;;;;;;6.58;5.28;;;;;;;3.60;42.16;104215.97;1681442;84;21037;-74
2022/03/19 07:48:21;;;;;;;7.65;5.00;;;;;;;3.57;42.24;104215.77;1672894;84;21030;-69
2022/03/19 07:50:49;;;;;;;6.17;4.50;;;;;;;3.56;42.13;104208.86;1673390;83;21081;-73
2022/03/19 07:53:16;;;;;;;6.33;4.30;;;;;;;3.59;42.11;104220.61;1678058;84;21057;-69
2022/03/19 07:55:48;;;;;;;4.10;3.20;;;;;;;3.68;42.35;104217.33;1669153;84;21076;-70
2022/03/19 07:58:15;;;;;;;5.92;3.25;;;;;;;3.75;41.80;104219.50;1697635;82;21090;-69
2022/03/19 08:00:42;;;;;;;4.92;4.00;;;;;;;3.82;41.63;104215.19;1682012;83;21018;-70
2022/03/19 08:03:09;;;;;;;5.28;3.98;;;;;;;3.92;42.07;104226.53;1728199;82;21017;-75
2022/03/19 08:05:37;;;;;;;5.20;3.52;;;;;;;4.04;41.92;104229.84;1736766;80;21066;-71
2022/03/19 08:08:08;;;;;;;6.80;3.98;;;;;;;4.12;41.65;104225.64;1735241;81;21011;-70
2022/03/19 08:10:36;;;;;;;7.05;4.10;;;;;;;4.13;41.99;104222.67;1728322;82;21675;-71
2022/03/19 08:13:05;;;;;;;4.72;3.95;;;;;;;4.19;42.07;104223.03;1737993;81;21098;-74
2022/03/19 08:15:34;;;;;;;5.95;3.90;;;;;;;4.31;41.70;104225.04;1739731;81;21026;-73
2022/03/19 08:18:01;;;;;;;10.72;3.80;;;;;;;4.38;41.64;104229.77;1772159;79;20990;-69
2022/03/19 08:20:30;;;;;;;7.10;3.85;;;;;;;4.45;41.46;104226.73;1762687;80;21560;-71
2022/03/19 08:22:58;;;;;;;6.20;3.87;;;;;;;4.46;41.13;104225.95;1791025;78;21046;-72
2022/03/19 08:25:25;;;;;;;6.80;3.75;;;;;;;4.47;41.08;104221.69;1792176;78;21033;-72
2022/03/19 08:27:54;;;;;;;5.47;3.37;;;;;;;4.46;40.91;104224.66;1762256;79;21080;-72
2022/03/19 08:30:21;;;;;;;8.05;3.95;;;;;;;4.47;41.01;104221.27;1775470;77;21058;-71
2022/03/19 08:32:48;;;;;;;4.12;3.37;;;;;;;4.51;40.85;104222.35;1735387;82;21023;-70
2022/03/19 08:35:17;;;;;;;4.67;4.17;;;;;;;4.55;41.28;104227.78;1721137;82;21015;-69
2022/03/19 08:37:44;;;;;;;6.10;3.95;;;;;;;4.58;40.89;104225.36;1774821;79;20995;-72
2022/03/19 08:40:15;;;;;;;9.40;5.45;;;;;;;4.55;40.93;104210.13;1776620;79;21087;-74
2022/03/19 08:42:53;;;;;;;10.78;6.00;;;;;;;4.51;41.06;104217.20;1791708;79;21021;-71
2022/03/19 08:45:20;;;;;;;12.13;6.45;;;;;;;4.49;41.11;104214.50;1798632;78;21065;-69
2022/03/19 08:47:49;;;;;;;6.90;5.28;;;;;;;4.48;41.33;104223.06;1724574;81;21047;-69
2022/03/19 08:50:17;;;;;;;8.28;5.53;;;;;;;4.50;41.55;104218.88;1713134;82;21089;-71
2022/03/19 08:52:44;;;;;;;9.48;4.83;;;;;;;4.58;41.28;104213.76;1706945;81;21055;-70
2022/03/19 08:55:12;;;;;;;7.03;5.00;;;;;;;4.66;40.96;104229.66;1735834;81;21079;-72
2022/03/19 08:57:39;;;;;;;4.83;3.87;;;;;;;4.70;41.03;104220.91;1728257;82;21038;-72
2022/03/19 09:00:09;;;;;;;12.73;5.37;;;;;;;4.75;41.00;104222.07;1709399;81;21372;-69
2022/03/19 09:02:36;;;;;;;5.00;4.00;;;;;;;4.76;41.12;104226.41;1710140;82;21033;-69
2022/03/19 09:05:04;;;;;;;9.05;6.70;;;;;;;4.85;40.62;104221.78;1704462;82;21058;-71
2022/03/19 09:07:33;;;;;;;5.33;3.83;;;;;;;4.92;40.44;104212.70;1711245;82;21583;-70
2022/03/19 09:10:01;;;;;;;12.60;6.53;;;;;;;5.01;40.46;104218.78;1718620;82;21040;-67
2022/03/19 09:12:29;;;;;;;6.35;4.12;;;;;;;5.10;40.07;104219.27;1716741;82;21110;-69
2022/03/19 09:14:58;;;;;;;4.80;3.83;;;;;;;5.18;40.27;104224.45;1708165;82;21098;-72
2022/03/19 09:17:26;;;;;;;6.72;4.60;;;;;;;5.22;40.19;104212.20;1721713;82;21492;-73
2022/03/19 09:19:54;;;;;;;6.35;5.15;;;;;;;5.28;40.38;104218.98;1711599;82;21057;-71
2022/03/19 09:22:21;;;;;;;4.95;3.92;;;;;;;5.37;40.12;104206.59;1709389;82;22665;-70
2022/03/19 09:24:49;;;;;;;7.22;4.45;;;;;;;5.45;39.73;104201.44;1704356;82;21099;-70
2022/03/19 09:27:16;;;;;;;8.43;4.50;;;;;;;5.52;39.28;104199.68;1720103;82;21070;-75
2022/03/19 09:29:45;;;;;;;5.22;3.70;;;;;;;5.57;39.01;104200.80;1716681;82;21552;-72
2022/03/19 09:32:12;;;;;;;7.53;5.37;;;;;;;5.58;39.33;104188.38;1760743;79;21502;-68
2022/03/19 09:34:40;;;;;;;8.63;6.00;;;;;;;5.64;39.49;104200.33;1721432;82;21141;-68
2022/03/19 09:37:07;;;;;;;4.45;3.40;;;;;;;5.71;39.56;104199.82;1793994;78;21077;-70
2022/03/19 09:39:34;;;;;;;5.75;4.17;;;;;;;5.78;38.90;104198.95;1781661;79;21052;-71
2022/03/19 09:42:03;;;;;;;4.53;3.92;;;;;;;5.78;38.83;104199.34;1774717;79;21026;-72
2022/03/19 09:44:31;;;;;;;6.00;3.55;;;;;;;5.80;38.67;104191.27;1779469;79;21072;-74
2022/03/19 09:46:58;;;;;;;5.03;3.52;;;;;;;5.89;38.57;104179.27;1778845;79;21044;-72
2022/03/19 09:49:26;;;;;;;6.08;3.33;;;;;;;5.96;38.68;104182.23;1780331;78;21069;-72
2022/03/19 09:51:54;;;;;;;4.83;3.52;;;;;;;6.06;38.55;104176.72;1780555;79;21069;-71
2022/03/19 09:54:22;;;;;;;7.65;5.05;;;;;;;6.19;38.00;104181.72;1762480;79;21081;-71
2022/03/19 09:56:50;;;;;;;6.97;4.33;;;;;;;6.26;37.64;104178.64;1765512;79;21035;-70
2022/03/19 09:59:18;;;;;;;6.40;4.53;;;;;;;6.32;37.24;104184.12;1779259;79;21537;-71
2022/03/19 10:01:48;;;;;;;7.08;4.08;;;;;;;6.33;37.35;104176.83;1765143;78;21041;-73
2022/03/19 10:04:19;;;;;;;8.45;5.83;;;;;;;6.35;37.33;104176.49;1765150;78;21065;-69
2022/03/19 10:09:44;;;;;;;13.50;5.33;;;;;;;6.45;37.34;104164.92;1774681;79;21059;-73
2022/03/19 10:12:14;;;;;;;17.67;8.88;;;;;;;6.51;37.10;104173.84;1763611;80;21018;-71
2022/03/19 10:14:41;;;;;;;10.70;6.62;;;;;;;6.60;37.04;104173.41;1768179;79;21518;-70
2022/03/19 10:17:08;;;;;;;7.70;5.05;;;;;;;6.65;36.65;104168.47;1738403;81;21046;-71
2022/03/19 10:19:53;;;;;;;4.90;3.62;;;;;;;6.70;36.75;104167.00;1750254;80;21053;-69
2022/03/19 10:22:28;;;;;;;6.78;4.03;;;;;;;6.77;36.59;104167.76;1743408;80;21048;-72
2022/03/19 10:25:02;;;;;;;7.20;4.25;;;;;;;6.81;36.45;104160.61;1755208;80;21496;-73
2022/03/19 10:27:38;;;;;;;5.90;4.35;;;;;;;6.79;36.70;104162.25;1647244;85;21131;-69
2022/03/19 10:32:49;;;;;;;6.87;3.70;;;;;;;6.94;36.07;104145.75;1550495;90;21548;-72
2022/03/19 10:35:34;;;;;;;4.55;3.60;;;;;;;7.00;35.87;104147.33;1544342;90;21499;-70
2022/03/19 10:38:18;;;;;;;4.72;3.50;;;;;;;7.07;35.82;104152.36;1534975;92;21701;-72
2022/03/19 10:43:22;;;;;;;5.62;3.75;;;;;;;7.12;35.25;104149.19;1492434;94;21113;-70
2022/03/19 10:45:51;;;;;;;5.05;3.98;;;;;;;7.15;35.56;104151.91;1445156;97;21150;-69
2022/03/19 10:48:26;;;;;;;4.45;3.70;;;;;;;7.25;35.46;104150.64;1446523;98;21133;-71
2022/03/19 10:50:54;;;;;;;4.22;3.70;;;;;;;7.34;34.91;104152.33;1435716;98;21223;-72
2022/03/19 10:53:23;;;;;;;6.37;4.30;;;;;;;7.42;34.42;104147.09;1437524;98;21624;-76
2022/03/19 10:55:51;;;;;;;7.20;4.35;;;;;;;7.39;34.82;104147.86;1440495;98;21657;-73
2022/03/19 10:58:19;;;;;;;5.70;3.95;;;;;;;7.38;35.05;104147.77;1437638;98;21133;-70
2022/03/19 11:00:50;;;;;;;6.17;4.00;;;;;;;7.38;35.12;104147.77;1441516;98;21114;-75
2022/03/19 11:03:30;;;;;;;7.33;4.60;;;;;;;7.39;35.32;104141.79;1425257;99;21149;-70
2022/03/19 11:06:06;;;;;;;6.53;4.33;;;;;;;7.43;34.98;104141.10;1395064;101;21114;-69
2022/03/19 11:08:43;;;;;;;4.75;3.98;;;;;;;7.51;34.87;104141.44;1390643;102;21209;-72
2022/03/19 11:11:24;;;;;;;5.05;3.72;;;;;;;7.62;34.79;104142.81;1340415;105;21254;-71
2022/03/19 11:13:54;;;;;;;5.60;3.33;;;;;;;7.68;34.58;104136.19;1299967;108;21723;-70
2022/03/19 11:16:21;;;;;;;4.30;3.20;;;;;;;7.73;33.98;104133.38;1305602;108;21179;-70
2022/03/19 11:18:52;;;;;;;5.70;3.95;;;;;;;7.77;33.93;104135.71;1311926;108;21139;-69
2022/03/19 11:21:19;;;;;;;4.47;3.22;;;;;;;7.81;33.93;104133.29;1307843;108;21735;-71
2022/03/19 11:24:22;;;;;;;5.92;2.65;;;;;;;7.89;33.48;104135.80;1319636;105;21157;-69
2022/03/19 11:26:46;;;;;;;4.45;3.05;;;;;;;7.94;33.27;104133.00;1343108;105;21840;-70
2022/03/19 11:29:13;;;;;;;2.92;2.62;;;;;;;7.98;32.98;104123.64;1343300;105;21192;-71
2022/03/19 11:31:43;;;;;;;3.25;2.50;;;;;;;8.00;32.39;104122.89;1337460;104;21251;-72
2022/03/19 11:34:16;;;;;;;5.58;2.55;;;;;;;8.03;32.13;104123.03;1351222;105;21250;-70
2022/03/19 11:36:59;;;;;;;11.15;3.58;;;;;;;8.08;32.21;104117.61;1353231;103;21205;-71
2022/03/19 11:39:28;;;;;;;4.12;2.75;;;;;;;8.11;32.16;104108.67;1344848;101;21319;-72
2022/03/19 11:41:55;;;;;;;5.33;2.83;;;;;;;8.16;32.48;104099.35;1401822;98;21161;-70
2022/03/19 11:44:26;;;;;;;3.58;2.45;;;;;;;8.23;32.33;104106.58;1500578;94;21184;-74
2022/03/19 11:47:11;;;;;;;2.72;2.17;;;;;;;8.29;31.96;104103.77;1485886;95;21134;-68
2022/03/19 11:49:52;;;;;;;4.37;2.47;;;;;;;8.37;31.73;104094.59;1479465;95;21062;-74
2022/03/19 11:52:30;;;;;;;2.98;2.20;;;;;;;8.43;31.66;104100.05;1495139;94;21594;-67
2022/03/19 11:55:06;;;;;;;3.10;2.20;;;;;;;8.41;31.07;104087.44;1502384;94;21155;-69
2022/03/19 11:58:00;;;;;;;2.92;2.12;;;;;;;8.45;31.15;104089.33;1488430;94;21200;-69
2022/03/19 12:00:28;;;;;;;3.85;2.33;;;;;;;8.48;31.20;104084.23;1487886;94;21210;-72
2022/03/19 12:03:11;;;;;;;2.00;1.80;;;;;;;8.52;30.49;104088.32;1535360;90;21180;-74
2022/03/19 12:05:43;;;;;;;4.40;2.02;;;;;;;8.55;30.27;104087.56;1566814;90;21101;-71
2022/03/19 12:08:19;;;;;;;5.83;2.58;;;;;;;8.59;30.02;104086.86;1535354;93;21082;-71
2022/03/19 12:11:03;;;;;;;4.17;2.30;;;;;;;8.60;30.00;104074.33;1545485;90;21098;-73